Time;durP1;ratioP1;P1;durP2;ratioP2;P2;SDS_P1;SDS_P2;PMS_P1;PMS_P2;Temp;Humidity;BMP_temperature;BMP_pressure;BME280_temperature;BME280_humidity;BME280_pressure;Samples;Min_cycle;Max_cycle;Signal;HPM_P1;HPM_P2
2021/07/13 00:00:46;;;;;;;109.22;103.00;;;18.00;99.80;;;;;;5027245;28;20059;-79
2021/07/13 00:03:12;;;;;;;20.85;19.08;;;18.00;99.80;;;;;;5026331;28;20049;-79
2021/07/13 00:05:39;;;;;;;30.33;28.42;;;17.90;99.70;;;;;;5060347;28;20511;-79
2021/07/13 00:08:05;;;;;;;42.97;40.03;;;17.80;99.80;;;;;;5043602;28;20026;-78
2021/07/13 00:10:34;;;;;;;35.45;33.17;;;17.70;99.80;;;;;;5060166;28;20511;-79
2021/07/13 00:13:00;;;;;;;35.55;33.22;;;17.70;99.90;;;;;;5044117;28;20391;-78
2021/07/13 00:15:33;;;;;;;50.13;47.17;;;17.60;99.90;;;;;;5060217;28;20383;-79
2021/07/13 00:18:00;;;;;;;61.65;58.15;;;17.60;99.90;;;;;;5028240;28;20033;-79
2021/07/13 00:20:27;;;;;;;53.72;50.72;;;17.50;99.90;;;;;;5043368;28;20056;-79
2021/07/13 00:22:53;;;;;;;43.53;40.70;;;17.50;99.90;;;;;;5026947;28;20034;-79
2021/07/13 00:25:19;;;;;;;46.72;43.97;;;17.50;99.90;;;;;;5026551;28;20057;-79
2021/07/13 00:27:45;;;;;;;47.13;44.20;;;17.50;99.90;;;;;;5027852;28;20022;-79
2021/07/13 00:30:14;;;;;;;42.95;40.45;;;17.40;99.90;;;;;;5059937;28;20025;-79
2021/07/13 00:32:40;;;;;;;41.70;39.05;;;17.40;99.90;;;;;;5059878;28;20108;-78
2021/07/13 00:35:07;;;;;;;44.90;42.17;;;17.40;99.90;;;;;;5027058;28;20367;-79
2021/07/13 00:37:33;;;;;;;29.17;27.38;;;17.40;99.90;;;;;;5043154;28;20029;-79
2021/07/13 00:39:58;;;;;;;25.15;22.83;;;17.50;99.90;;;;;;5026643;28;20032;-79
2021/07/13 00:42:24;;;;;;;19.77;18.08;;;17.60;99.90;;;;;;5026659;28;20033;-79
2021/07/13 00:44:50;;;;;;;16.55;15.15;;;17.70;99.90;;;;;;5043187;28;20048;-79
2021/07/13 00:47:20;;;;;;;15.98;14.75;;;17.70;99.90;;;;;;5028072;28;20030;-78
2021/07/13 00:49:46;;;;;;;;;;;17.80;99.90;;;;;;5043811;28;20025;-79
2021/07/13 00:52:12;;;;;;;14.93;13.73;;;17.80;99.90;;;;;;5026342;28;19908;-79
2021/07/13 00:54:40;;;;;;;18.42;16.85;;;17.80;99.90;;;;;;5043047;28;20387;-78
2021/07/13 00:57:10;;;;;;;23.77;21.90;;;17.70;99.90;;;;;;5059868;28;20041;-79
2021/07/13 00:59:37;;;;;;;17.48;16.13;;;17.60;99.90;;;;;;5042814;28;20088;-79
2021/07/13 01:02:04;;;;;;;13.00;11.73;;;17.50;99.90;;;;;;5027686;28;20026;-78
2021/07/13 01:04:31;;;;;;;14.38;13.05;;;17.40;99.90;;;;;;5026465;28;20033;-78
2021/07/13 01:07:07;;;;;;;15.73;14.45;;;17.30;99.90;;;;;;5042809;28;20030;-79
2021/07/13 01:10:04;;;;;;;17.15;15.10;;;17.20;99.90;;;;;;5063392;28;20037;-79
2021/07/13 01:12:39;;;;;;;17.67;15.80;;;17.10;99.90;;;;;;5031617;28;20076;-78
2021/07/13 01:15:07;;;;;;;18.17;16.85;;;17.00;99.90;;;;;;5031688;28;20372;-78
2021/07/13 01:17:39;;;;;;;19.50;18.00;;;17.00;99.90;;;;;;5063376;28;20480;-78
2021/07/13 01:20:29;;;;;;;22.98;20.92;;;17.00;99.90;;;;;;5031618;28;20033;-79
2021/07/13 01:23:29;;;;;;;27.55;25.13;;;16.90;99.90;;;;;;5063779;28;20488;-79
2021/07/13 01:26:17;;;;;;;28.85;26.67;;;16.90;99.90;;;;;;5039816;28;20060;-79
2021/07/13 01:28:49;;;;;;;23.80;22.30;;;16.80;99.90;;;;;;5063218;28;20029;-79
2021/07/13 01:31:17;;;;;;;35.03;32.92;;;16.80;99.90;;;;;;5046629;28;20032;-78
2021/07/13 01:33:49;;;;;;;46.85;44.25;;;16.80;99.90;;;;;;5046547;28;20044;-79
2021/07/13 01:36:20;;;;;;;47.42;44.80;;;16.80;99.90;;;;;;5063383;28;20029;-79
2021/07/13 01:38:48;;;;;;;45.97;42.97;;;16.70;99.90;;;;;;5031502;28;20415;-79
2021/07/13 01:41:24;;;;;;;63.17;59.13;;;16.80;99.90;;;;;;5030007;28;20029;-78
2021/07/13 01:43:51;;;;;;;55.90;52.85;;;16.70;99.90;;;;;;5063082;28;20044;-79
2021/07/13 01:46:18;;;;;;;82.65;78.03;;;16.60;99.90;;;;;;5031052;28;20538;-79
2021/07/13 01:48:47;;;;;;;54.17;50.60;;;16.70;99.90;;;;;;5046219;28;20052;-79
2021/07/13 01:51:14;;;;;;;43.72;40.38;;;16.60;99.90;;;;;;5063116;28;20026;-79
2021/07/13 01:53:42;;;;;;;58.47;55.15;;;16.60;99.90;;;;;;5046352;28;20071;-78
2021/07/13 01:56:10;;;;;;;43.78;40.97;;;16.60;99.90;;;;;;5062615;28;20057;-79
2021/07/13 01:58:37;;;;;;;46.15;42.85;;;16.60;99.90;;;;;;5062954;28;20399;-79
2021/07/13 02:01:12;;;;;;;30.27;28.00;;;16.50;99.90;;;;;;5029591;28;20033;-79
2021/07/13 02:03:41;;;;;;;30.27;28.25;;;16.50;99.90;;;;;;5062797;28;20021;-78
2021/07/13 02:06:08;;;;;;;33.30;31.17;;;16.50;99.90;;;;;;5030758;28;20021;-79
2021/07/13 02:08:38;;;;;;;43.55;40.85;;;16.40;99.90;;;;;;5030448;28;20519;-78
2021/07/13 02:11:06;;;;;;;43.17;40.35;;;16.40;99.90;;;;;;5030696;28;20022;-78
2021/07/13 02:13:32;;;;;;;51.55;48.10;;;16.40;99.90;;;;;;5030564;28;20026;-78
2021/07/13 02:15:59;;;;;;;39.33;36.90;;;16.40;99.90;;;;;;5030535;28;20030;-78
2021/07/13 02:18:26;;;;;;;48.05;45.22;;;16.50;99.90;;;;;;5062047;28;20503;-79
2021/07/13 02:20:52;;;;;;;33.15;30.80;;;16.50;99.90;;;;;;5045736;28;20038;-79
2021/07/13 02:23:18;;;;;;;26.98;24.65;;;16.50;99.90;;;;;;5045800;28;20492;-79
2021/07/13 02:25:48;;;;;;;24.77;23.05;;;16.50;99.90;;;;;;5045567;28;20157;-78
2021/07/13 02:28:31;;;;;;;;;;;16.50;99.90;;;;;;5030732;28;20040;-78
2021/07/13 02:31:11;;;;;;;24.23;22.25;;;16.50;99.90;;;;;;5062289;28;19949;-79
2021/07/13 02:34:09;;;;;;;20.35;18.85;;;16.60;99.90;;;;;;5045467;28;20029;-79
2021/07/13 02:36:38;;;;;;;20.77;19.17;;;16.60;99.90;;;;;;5029701;28;20091;-79
2021/07/13 02:39:09;;;;;;;22.83;21.13;;;16.60;99.90;;;;;;5061888;28;20066;-78
2021/07/13 02:41:41;;;;;;;24.88;23.00;;;16.60;99.90;;;;;;5030121;28;20388;-78
2021/07/13 02:44:09;;;;;;;22.30;20.50;;;16.60;99.90;;;;;;5061955;28;20025;-79
2021/07/13 02:46:41;;;;;;;21.25;19.48;;;16.60;99.90;;;;;;5061741;28;20083;-79
2021/07/13 02:49:09;;;;;;;17.83;16.40;;;16.60;99.90;;;;;;5046184;28;20033;-79
2021/07/13 02:51:37;;;;;;;18.02;16.58;;;16.70;99.90;;;;;;5061912;28;20021;-79
2021/07/13 02:54:06;;;;;;;17.00;15.75;;;16.70;99.90;;;;;;5045192;28;20033;-79
2021/07/13 02:56:33;;;;;;;15.70;14.40;;;16.70;99.90;;;;;;5029702;28;20034;-79
2021/07/13 02:59:02;;;;;;;15.13;13.77;;;16.80;99.90;;;;;;5044865;28;20025;-78
2021/07/13 03:01:30;;;;;;;16.73;15.10;;;16.90;99.90;;;;;;5029820;28;20109;-79
2021/07/13 03:03:57;;;;;;;165.75;157.20;;;17.00;99.90;;;;;;5029486;28;20424;-78
2021/07/13 03:06:23;;;;;;;237.85;226.02;;;17.00;99.90;;;;;;5028296;28;20402;-78
2021/07/13 03:08:49;;;;;;;219.30;207.80;;;17.00;99.90;;;;;;5029465;28;20045;-79
2021/07/13 03:11:15;;;;;;;214.13;203.02;;;17.00;99.90;;;;;;5028135;28;20030;-79
2021/07/13 03:13:41;;;;;;;197.70;187.50;;;17.10;99.90;;;;;;5061336;28;20032;-79
2021/07/13 03:16:10;;;;;;;199.93;189.75;;;17.00;99.90;;;;;;5029430;28;20036;-79
2021/07/13 03:18:36;;;;;;;192.52;182.45;;;17.00;99.90;;;;;;5029339;28;20018;-79
2021/07/13 03:21:03;;;;;;;202.55;192.00;;;16.90;99.90;;;;;;5027973;28;20033;-78
2021/07/13 03:23:32;;;;;;;172.40;163.38;;;16.90;99.90;;;;;;5044579;28;20036;-78
2021/07/13 03:25:58;;;;;;;146.80;139.15;;;16.90;99.90;;;;;;5044258;28;20041;-78
2021/07/13 03:28:27;;;;;;;129.02;121.93;;;17.00;99.90;;;;;;5029114;28;20123;-78
2021/07/13 03:30:54;;;;;;;114.28;108.03;;;17.00;99.90;;;;;;5028720;28;20017;-79
2021/07/13 03:33:21;;;;;;;108.35;101.80;;;17.00;99.90;;;;;;5044439;28;20579;-79
2021/07/13 03:35:48;;;;;;;84.55;79.82;;;17.10;99.90;;;;;;5044197;28;20025;-79
2021/07/13 03:38:16;;;;;;;69.00;65.18;;;17.10;99.90;;;;;;5027609;28;20033;-79
2021/07/13 03:40:43;;;;;;;68.40;64.47;;;17.10;99.90;;;;;;5044155;28;20045;-78
2021/07/13 03:43:08;;;;;;;68.43;64.63;;;17.10;99.90;;;;;;5027484;28;20033;-79
2021/07/13 03:45:34;;;;;;;66.95;63.05;;;17.20;99.90;;;;;;5028838;28;20094;-79
2021/07/13 03:48:00;;;;;;;49.97;46.95;;;17.20;99.90;;;;;;5027614;28;20041;-79
2021/07/13 03:50:35;;;;;;;44.13;41.22;;;17.20;99.90;;;;;;5060761;28;20594;-78
2021/07/13 03:53:01;;;;;;;41.40;38.60;;;17.20;99.90;;;;;;5060647;28;20038;-78
2021/07/13 03:55:27;;;;;;;33.97;31.48;;;17.20;99.90;;;;;;5060601;28;20106;-79
2021/07/13 03:57:54;;;;;;;35.10;32.50;;;17.20;99.90;;;;;;5060352;28;20463;-79
2021/07/13 04:00:21;;;;;;;32.15;29.90;;;17.10;99.90;;;;;;5027088;28;20026;-79
2021/07/13 04:02:47;;;;;;;35.78;33.10;;;17.10;99.90;;;;;;5060133;28;20033;-79
2021/07/13 04:05:14;;;;;;;34.38;31.92;;;17.10;99.90;;;;;;5060372;28;20388;-79
2021/07/13 04:07:40;;;;;;;33.67;31.30;;;17.10;99.90;;;;;;5043482;28;20029;-78
2021/07/13 04:10:08;;;;;;;34.70;32.38;;;17.10;99.90;;;;;;5060402;28;20021;-79
2021/07/13 04:12:34;;;;;;;24.98;23.05;;;17.10;99.90;;;;;;5028251;28;20029;-79
2021/07/13 04:15:00;;;;;;;26.67;24.38;;;17.10;99.90;;;;;;5028285;28;20045;-79
2021/07/13 04:17:25;;;;;;;18.95;17.52;;;17.10;99.90;;;;;;5043438;28;20036;-79
2021/07/13 04:19:51;;;;;;;18.27;16.77;;;17.10;99.90;;;;;;5028474;28;20025;-78
2021/07/13 04:22:17;;;;;;;18.00;16.30;;;17.10;99.90;;;;;;5027152;28;20544;-79
2021/07/13 04:24:42;;;;;;;18.30;16.48;;;17.00;99.90;;;;;;5026691;28;20049;-79
2021/07/13 04:27:08;;;;;;;18.13;16.35;;;17.10;99.90;;;;;;5027839;28;20040;-79
2021/07/13 04:29:34;;;;;;;17.73;15.90;;;17.10;99.90;;;;;;5028062;28;20047;-79
2021/07/13 04:32:00;;;;;;;18.08;16.40;;;17.10;99.90;;;;;;5043257;28;20567;-79
2021/07/13 04:34:26;;;;;;;19.35;17.30;;;17.10;99.90;;;;;;5043165;28;20076;-79
2021/07/13 04:36:52;;;;;;;18.63;17.02;;;17.10;99.90;;;;;;5026566;28;20423;-78
2021/07/13 04:39:17;;;;;;;19.05;17.40;;;17.20;99.90;;;;;;5043034;28;20029;-79
2021/07/13 04:41:43;;;;;;;27.90;17.02;;;17.20;99.90;;;;;;5026624;28;20033;-78
2021/07/13 04:44:09;;;;;;;19.17;17.38;;;17.20;99.90;;;;;;5026549;28;20032;-79
2021/07/13 04:46:34;;;;;;;18.08;16.55;;;17.20;99.90;;;;;;5059705;28;20029;-79
2021/07/13 04:49:00;;;;;;;19.00;17.13;;;17.20;99.90;;;;;;5027558;28;20040;-80
2021/07/13 04:51:26;;;;;;;18.13;16.33;;;17.30;99.90;;;;;;5026538;28;20040;-79
2021/07/13 04:53:52;;;;;;;19.40;17.80;;;17.30;99.90;;;;;;5026505;28;20029;-80
2021/07/13 04:56:18;;;;;;;19.25;17.65;;;17.30;99.90;;;;;;5027694;28;20033;-79
2021/07/13 04:58:44;;;;;;;20.95;19.20;;;17.30;99.90;;;;;;5027580;28;20033;-78
2021/07/13 05:01:10;;;;;;;21.63;19.98;;;17.30;99.90;;;;;;5027622;28;20071;-80
2021/07/13 05:03:36;;;;;;;22.77;21.08;;;17.30;99.90;;;;;;5042733;28;20021;-79
2021/07/13 05:06:01;;;;;;;26.42;24.13;;;17.30;99.90;;;;;;5026185;28;20037;-78
2021/07/13 05:08:27;;;;;;;26.60;24.63;;;17.30;99.90;;;;;;5026323;28;20026;-79
2021/07/13 05:10:53;;;;;;;31.15;28.60;;;17.40;99.90;;;;;;5059514;28;20664;-78
2021/07/13 05:13:19;;;;;;;52.88;48.88;;;17.40;99.90;;;;;;5026387;28;20057;-79
2021/07/13 05:15:45;;;;;;;45.40;42.30;;;17.50;99.90;;;;;;5059352;28;20529;-80
2021/07/13 05:18:12;;;;;;;50.90;47.47;;;17.50;99.90;;;;;;5059496;28;20029;-80
2021/07/13 05:20:43;;;;;;;47.60;44.33;;;17.50;99.90;;;;;;5043030;28;20396;-79
2021/07/13 05:23:09;;;;;;;59.92;55.80;;;17.60;99.90;;;;;;5027362;28;20024;-79
2021/07/13 05:25:37;;;;;;;69.95;65.82;;;17.60;99.80;;;;;;5042469;28;20053;-79
2021/07/13 05:28:04;;;;;;;84.13;79.03;;;17.70;99.70;;;;;;5043131;28;20026;-79
2021/07/13 05:30:30;;;;;;;152.55;143.73;;;17.70;99.70;;;;;;5027394;28;20428;-78
2021/07/13 05:32:57;;;;;;;77.45;72.78;;;17.70;99.70;;;;;;5042871;28;20407;-80
2021/07/13 05:35:23;;;;;;;95.55;90.32;;;17.70;99.70;;;;;;5059301;28;20030;-78
2021/07/13 05:37:49;;;;;;;89.68;84.65;;;17.70;99.60;;;;;;5027241;28;20026;-78
2021/07/13 05:40:16;;;;;;;132.40;125.32;;;17.70;99.50;;;;;;5042521;28;20061;-79
2021/07/13 05:42:42;;;;;;;82.93;78.35;;;17.70;99.50;;;;;;5059276;28;20112;-78
2021/07/13 05:45:09;;;;;;;66.00;62.17;;;17.70;99.50;;;;;;5026004;28;20029;-79
2021/07/13 05:47:35;;;;;;;74.85;70.10;;;17.60;99.50;;;;;;5025593;28;20026;-78
2021/07/13 05:50:03;;;;;;;62.15;58.45;;;17.60;99.50;;;;;;5059027;28;20025;-78
2021/07/13 05:52:29;;;;;;;114.78;108.35;;;17.60;99.50;;;;;;5042880;28;20030;-78
2021/07/13 05:54:54;;;;;;;69.38;65.03;;;17.60;99.50;;;;;;5044974;28;20116;-78
2021/07/13 05:57:21;;;;;;;72.65;68.30;;;17.60;99.50;;;;;;5029212;28;20091;-78
2021/07/13 05:59:46;;;;;;;95.45;90.00;;;17.60;99.40;;;;;;5046186;28;20025;-78
2021/07/13 06:02:12;;;;;;;81.22;76.03;;;17.60;99.40;;;;;;5029423;28;20086;-79
2021/07/13 06:04:38;;;;;;;85.88;81.03;;;17.60;99.40;;;;;;5029226;28;20041;-78
2021/07/13 06:07:03;;;;;;;307.25;292.65;;;17.50;99.40;;;;;;5045628;28;20030;-78
2021/07/13 06:09:29;;;;;;;78.18;73.68;;;17.60;99.40;;;;;;5045827;28;20025;-78
2021/07/13 06:11:57;;;;;;;140.18;132.80;;;17.60;99.40;;;;;;5029279;28;20089;-78
2021/07/13 06:14:23;;;;;;;95.78;90.00;;;17.60;99.40;;;;;;5030367;28;20022;-79
2021/07/13 06:16:49;;;;;;;111.43;105.40;;;17.60;99.40;;;;;;5030197;28;20032;-79
2021/07/13 06:19:15;;;;;;;200.27;189.95;;;17.60;99.40;;;;;;5030327;28;20432;-79
2021/07/13 06:21:41;;;;;;;188.48;178.65;;;17.60;99.40;;;;;;5029017;28;20056;-78
2021/07/13 06:24:07;;;;;;;87.15;82.38;;;17.60;99.40;;;;;;5045680;28;20045;-78
2021/07/13 06:26:32;;;;;;;89.70;84.70;;;17.60;99.30;;;;;;5028701;28;20403;-77
2021/07/13 06:28:59;;;;;;;79.10;74.35;;;17.60;99.30;;;;;;5045338;28;20040;-78
2021/07/13 06:31:25;;;;;;;118.57;112.53;;;17.70;99.30;;;;;;5028812;28;20087;-78
2021/07/13 06:33:51;;;;;;;80.68;76.18;;;17.70;99.30;;;;;;5030038;28;20030;-79
2021/07/13 06:36:17;;;;;;;111.18;105.35;;;17.80;99.30;;;;;;5029023;28;20041;-78
2021/07/13 06:38:42;;;;;;;104.43;98.80;;;17.80;99.30;;;;;;5062039;28;20396;-78
2021/07/13 06:41:08;;;;;;;99.50;94.05;;;17.90;99.30;;;;;;5045429;28;20038;-78
2021/07/13 06:43:34;;;;;;;152.63;142.25;;;18.00;99.40;;;;;;5028909;28;20037;-79
2021/07/13 06:46:00;;;;;;;111.03;105.15;;;18.00;99.10;;;;;;5061711;28;20500;-78
2021/07/13 06:48:26;;;;;;;130.27;123.18;;;18.10;99.10;;;;;;5044875;28;20080;-79
2021/07/13 06:50:53;;;;;;;147.30;139.73;;;18.10;99.00;;;;;;5061723;28;20071;-78
2021/07/13 06:53:19;;;;;;;135.48;128.48;;;18.20;98.90;;;;;;5045130;28;20025;-79
2021/07/13 06:55:45;;;;;;;142.13;134.70;;;18.10;98.80;;;;;;5029531;28;20037;-78
2021/07/13 06:58:10;;;;;;;154.70;146.77;;;18.10;98.80;;;;;;5044606;28;20034;-79
2021/07/13 07:00:36;;;;;;;114.00;107.68;;;18.10;98.80;;;;;;5044599;28;20033;-79
2021/07/13 07:03:02;;;;;;;171.98;162.93;;;18.20;98.90;;;;;;5044640;28;20480;-78
2021/07/13 07:05:28;;;;;;;448.90;422.55;;;18.30;98.80;;;;;;5043460;28;20041;-78
2021/07/13 07:07:54;;;;;;;148.65;140.85;;;18.30;98.70;;;;;;5029289;28;20038;-78
2021/07/13 07:10:20;;;;;;;192.35;182.45;;;18.30;98.60;;;;;;5028156;28;20506;-78
2021/07/13 07:12:47;;;;;;;143.23;135.80;;;18.30;98.50;;;;;;5044689;28;20040;-77
2021/07/13 07:15:13;;;;;;;225.75;213.90;;;18.30;98.50;;;;;;5044766;28;20034;-78
2021/07/13 07:17:47;;;;;;;149.15;141.50;;;18.30;98.50;;;;;;5029199;28;20104;-79
2021/07/13 07:20:22;;;;;;;201.68;191.32;;;18.30;98.50;;;;;;5044707;28;20034;-78
2021/07/13 07:22:48;;;;;;;317.10;298.63;;;18.30;98.40;;;;;;5061131;28;20112;-78
2021/07/13 07:25:16;;;;;;;141.77;134.45;;;18.30;98.40;;;;;;5044357;28;20392;-79
2021/07/13 07:27:42;;;;;;;169.20;160.18;;;18.30;98.40;;;;;;5028632;28;20391;-78
2021/07/13 07:30:10;;;;;;;212.75;202.20;;;18.30;98.40;;;;;;5043941;28;20026;-79
2021/07/13 07:32:38;;;;;;;148.70;140.83;;;18.30;98.40;;;;;;5060512;28;20045;-79
2021/07/13 07:35:06;;;;;;;158.95;150.75;;;18.30;98.40;;;;;;5060883;28;20038;-79
2021/07/13 07:37:32;;;;;;;152.85;144.63;;;18.30;98.40;;;;;;5044164;28;20044;-78
2021/07/13 07:39:58;;;;;;;154.65;146.45;;;18.30;98.40;;;;;;5044175;28;20021;-78
2021/07/13 07:42:24;;;;;;;216.23;204.18;;;18.40;98.30;;;;;;5028869;28;20033;-79
2021/07/13 07:44:50;;;;;;;257.40;244.05;;;18.40;98.30;;;;;;5028895;28;20052;-78
2021/07/13 07:47:16;;;;;;;158.25;149.88;;;18.50;98.30;;;;;;5028329;28;20029;-79
2021/07/13 07:49:41;;;;;;;199.50;189.32;;;18.60;98.30;;;;;;5043775;28;20022;-79
2021/07/13 07:52:08;;;;;;;214.90;203.70;;;18.70;98.20;;;;;;5060320;28;20132;-78
2021/07/13 07:54:34;;;;;;;208.85;198.23;;;18.70;98.20;;;;;;5028358;28;20372;-79
2021/07/13 07:56:59;;;;;;;197.90;187.93;;;18.80;98.10;;;;;;5026712;28;20064;-77
2021/07/13 07:59:26;;;;;;;226.13;214.25;;;18.80;97.90;;;;;;5043908;28;20072;-80
2021/07/13 08:01:51;;;;;;;203.85;193.32;;;18.90;97.90;;;;;;5028373;28;20040;-79
2021/07/13 08:04:17;;;;;;;236.95;224.88;;;18.90;97.80;;;;;;5043514;28;20029;-78
2021/07/13 08:06:43;;;;;;;240.27;228.10;;;19.00;97.80;;;;;;5043354;28;20319;-78
2021/07/13 08:09:09;;;;;;;179.35;170.25;;;19.00;97.70;;;;;;5026825;28;20419;-78
2021/07/13 08:11:36;;;;;;;179.32;170.05;;;19.00;97.70;;;;;;5026939;28;20033;-79
2021/07/13 08:14:04;;;;;;;170.02;161.02;;;19.00;97.60;;;;;;5027806;28;20092;-77
2021/07/13 08:16:31;;;;;;;136.50;129.25;;;19.00;97.60;;;;;;5042971;28;20026;-78
2021/07/13 08:18:57;;;;;;;172.85;164.00;;;19.10;97.50;;;;;;5026477;28;20116;-78
2021/07/13 08:21:22;;;;;;;149.50;141.55;;;19.10;97.50;;;;;;5060298;28;20116;-78
2021/07/13 08:23:48;;;;;;;144.82;137.32;;;19.20;97.40;;;;;;5027078;28;20030;-77
2021/07/13 08:26:14;;;;;;;150.27;142.55;;;19.20;97.40;;;;;;5043189;28;20072;-79
2021/07/13 08:28:40;;;;;;;158.63;150.02;;;19.30;97.50;;;;;;5043278;28;20057;-78
2021/07/13 08:31:06;;;;;;;94.05;89.03;;;19.50;97.50;;;;;;5043262;28;20040;-78
2021/07/13 08:33:33;;;;;;;47.20;44.42;;;19.80;97.50;;;;;;5060898;28;20029;-77
2021/07/13 08:35:59;;;;;;;37.75;34.72;;;20.10;97.40;;;;;;5028427;28;20022;-78
2021/07/13 08:38:25;;;;;;;23.77;22.17;;;20.50;97.00;;;;;;5059971;28;20068;-78
2021/07/13 08:40:50;;;;;;;18.00;16.70;;;21.00;96.50;;;;;;5026864;28;20021;-78
2021/07/13 08:43:16;;;;;;;20.15;18.73;;;21.20;96.10;;;;;;5043685;28;20032;-79
2021/07/13 08:45:43;;;;;;;24.77;23.27;;;21.50;95.80;;;;;;5027135;28;20021;-78
2021/07/13 08:48:12;;;;;;;32.58;30.25;;;21.90;95.70;;;;;;5060443;28;20087;-79
2021/07/13 08:50:38;;;;;;;17.42;16.27;;;22.40;95.20;;;;;;5043385;28;20362;-79
2021/07/13 08:53:05;;;;;;;14.68;13.52;;;22.90;94.80;;;;;;5060088;28;20029;-77
2021/07/13 08:55:31;;;;;;;58.00;52.20;;;23.40;94.20;;;;;;5043352;28;20604;-79
2021/07/13 08:57:57;;;;;;;17.02;15.60;;;23.90;93.60;;;;;;5027679;28;20117;-79
2021/07/13 09:00:23;;;;;;;13.48;12.57;;;24.40;92.90;;;;;;5028094;28;20219;-78
2021/07/13 09:03:10;;;;;;;21.08;19.75;;;24.80;91.80;;;;;;5061229;28;20033;-77
2021/07/13 09:05:49;;;;;;;16.88;15.88;;;25.00;91.00;;;;;;5029395;28;20049;-79
2021/07/13 09:08:16;;;;;;;19.20;17.77;;;24.90;90.40;;;;;;5029575;28;20073;-79
2021/07/13 09:11:03;;;;;;;18.90;17.67;;;24.70;90.30;;;;;;5044585;28;20022;-78
2021/07/13 09:13:35;;;;;;;21.00;19.70;;;24.50;89.10;;;;;;5051602;28;20396;-79
2021/07/13 09:16:03;;;;;;;24.00;22.58;;;24.40;88.50;;;;;;5028392;28;20415;-79
2021/07/13 09:18:39;;;;;;;19.55;18.33;;;24.30;88.20;;;;;;5027200;28;20574;-76
2021/07/13 09:21:09;;;;;;;38.80;36.50;;;24.20;87.80;;;;;;5025832;28;20034;-79
2021/07/13 09:23:35;;;;;;;20.02;18.70;;;24.20;87.50;;;;;;5024511;28;20017;-81
2021/07/13 09:26:01;;;;;;;42.15;39.80;;;24.10;87.40;;;;;;5024331;28;20037;-79
2021/07/13 09:28:27;;;;;;;13.25;12.00;;;24.50;89.00;;;;;;5025619;28;20128;-79
2021/07/13 09:30:58;;;;;;;12.68;11.40;;;25.10;87.80;;;;;;5015004;28;20112;-80
2021/07/13 09:33:31;;;;;;;10.65;9.57;;;25.40;86.00;;;;;;5031582;28;20044;-78
2021/07/13 09:36:15;;;;;;;11.13;10.13;;;26.20;86.40;;;;;;5032634;28;20021;-78
2021/07/13 09:38:49;;;;;;;8.30;7.70;;;26.70;84.00;;;;;;5031312;28;20022;-78
2021/07/13 09:41:21;;;;;;;13.27;11.15;;;26.70;81.90;;;;;;5032441;28;20457;-79
2021/07/13 09:43:59;;;;;;;18.98;17.70;;;26.40;80.80;;;;;;5033022;28;20040;-76
2021/07/13 09:46:26;;;;;;;10.60;9.73;;;26.30;80.50;;;;;;5030904;28;20460;-77
2021/07/13 09:49:14;;;;;;;8.68;7.97;;;26.20;79.80;;;;;;5032290;28;20037;-77
2021/07/13 09:52:01;;;;;;;13.60;12.68;;;26.00;79.20;;;;;;5026422;28;20068;-78
2021/07/13 09:54:44;;;;;;;9.05;8.10;;;25.90;79.50;;;;;;5030452;28;20494;-79
2021/07/13 09:57:18;;;;;;;7.78;6.97;;;25.70;79.10;;;;;;5047629;28;20025;-78
2021/07/13 09:59:48;;;;;;;9.27;8.55;;;25.60;79.10;;;;;;5031517;28;20037;-78
2021/07/13 10:02:16;;;;;;;9.68;8.88;;;25.40;79.00;;;;;;5047322;28;20022;-78
2021/07/13 10:04:42;;;;;;;9.55;8.68;;;25.20;78.90;;;;;;5032387;28;20053;-79
2021/07/13 10:07:15;;;;;;;9.93;8.88;;;25.10;78.90;;;;;;5047281;28;20095;-78
2021/07/13 10:09:55;;;;;;;11.63;10.73;;;24.90;78.60;;;;;;5031971;28;20017;-80
2021/07/13 10:12:25;;;;;;;11.52;10.70;;;24.60;78.30;;;;;;5030231;28;20065;-80
2021/07/13 10:14:54;;;;;;;11.75;10.65;;;24.40;78.50;;;;;;5030520;28;20464;-78
2021/07/13 10:17:20;;;;;;;;;;;24.10;78.90;;;;;;5031141;28;20033;-70
2021/07/13 10:19:49;;;;;;;11.18;10.38;;;24.00;79.80;;;;;;5031552;28;19979;-79
2021/07/13 10:22:16;;;;;;;13.45;12.23;;;23.90;80.00;;;;;;5030989;28;20022;-78
2021/07/13 10:24:44;;;;;;;13.52;12.52;;;23.80;80.00;;;;;;5031520;28;20404;-78
2021/07/13 10:27:25;;;;;;;12.90;11.95;;;23.70;80.10;;;;;;5031557;28;20022;-78
2021/07/13 10:29:51;;;;;;;12.85;11.82;;;23.70;79.90;;;;;;5011829;28;20438;-79
2021/07/13 10:32:19;;;;;;;19.88;18.40;;;23.60;80.20;;;;;;5052201;28;20104;-81
2021/07/13 10:34:52;;;;;;;16.52;15.13;;;23.50;80.40;;;;;;5031862;28;20017;-79
2021/07/13 10:37:31;;;;;;;20.27;18.98;;;23.40;80.20;;;;;;5052593;28;20050;-80
2021/07/13 10:40:15;;;;;;;22.50;21.13;;;23.20;80.20;;;;;;5031706;28;20025;-78
2021/07/13 10:42:41;;;;;;;25.13;23.58;;;23.00;80.60;;;;;;5043704;28;20034;-78
2021/07/13 10:45:27;;;;;;;18.92;17.45;;;22.80;80.90;;;;;;5056133;28;20496;-79
2021/07/13 10:48:15;;;;;;;29.60;27.95;;;22.70;81.40;;;;;;5063240;28;20033;-78
2021/07/13 10:50:48;;;;;;;23.35;21.65;;;22.70;81.60;;;;;;5031136;28;20022;-79
2021/07/13 10:53:19;;;;;;;37.75;35.75;;;22.70;81.80;;;;;;5031066;28;20057;-69
2021/07/13 10:55:56;;;;;;;28.75;27.10;;;22.70;82.00;;;;;;5031642;28;20425;-80
2021/07/13 10:58:35;;;;;;;26.17;24.58;;;22.80;81.90;;;;;;5025949;28;20034;-80
2021/07/13 11:01:09;;;;;;;37.35;34.97;;;22.70;81.80;;;;;;5029830;28;20112;-78
2021/07/13 11:03:38;;;;;;;27.17;25.33;;;22.70;81.90;;;;;;5029860;28;20083;-78
2021/07/13 11:06:16;;;;;;;25.75;24.10;;;22.70;82.10;;;;;;5031175;28;20581;-79
2021/07/13 11:08:44;;;;;;;30.13;28.27;;;22.80;82.30;;;;;;5031236;28;20107;-78
2021/07/13 11:11:22;;;;;;;26.45;24.85;;;22.90;82.60;;;;;;5029686;28;20032;-81
2021/07/13 11:14:02;;;;;;;32.40;30.35;;;23.00;82.30;;;;;;5029713;28;20040;-80
2021/07/13 11:16:36;;;;;;;29.45;27.45;;;23.10;82.10;;;;;;5029427;28;20494;-78
2021/07/13 11:19:20;;;;;;;71.38;67.55;;;23.00;81.90;;;;;;5029638;28;20384;-77
2021/07/13 11:21:51;;;;;;;27.40;25.45;;;23.00;81.80;;;;;;5040991;28;20077;-79
2021/07/13 11:24:26;;;;;;;29.52;27.42;;;22.80;81.80;;;;;;5030607;28;20077;-77
2021/07/13 11:26:55;;;;;;;32.80;30.45;;;22.80;81.90;;;;;;5029378;28;20037;-80
2021/07/13 11:29:29;;;;;;;40.15;37.42;;;22.80;82.00;;;;;;5037233;28;20037;-79
2021/07/13 11:31:59;;;;;;;29.33;27.10;;;22.80;82.00;;;;;;5045760;28;20355;-80
2021/07/13 11:34:33;;;;;;;36.60;34.20;;;22.80;82.20;;;;;;5062788;28;20074;-78
2021/07/13 11:36:59;;;;;;;39.97;37.55;;;22.90;82.20;;;;;;5045652;28;20056;-80
2021/07/13 11:39:29;;;;;;;33.45;31.00;;;23.10;82.00;;;;;;5062710;28;20068;-79
2021/07/13 11:42:02;;;;;;;37.13;34.88;;;23.20;81.80;;;;;;5031059;28;20071;-81
2021/07/13 11:44:29;;;;;;;30.65;28.75;;;23.20;81.70;;;;;;5029162;28;20030;-77
2021/07/13 11:46:55;;;;;;;28.40;26.55;;;23.30;81.60;;;;;;5030901;28;20248;-80
2021/07/13 11:49:26;;;;;;;21.80;20.20;;;23.50;81.60;;;;;;5013325;28;20044;-79
2021/07/13 11:51:59;;;;;;;19.08;17.77;;;23.70;81.30;;;;;;5030005;28;20022;-79
2021/07/13 11:54:30;;;;;;;30.63;28.63;;;23.90;81.00;;;;;;5029251;28;20084;-78
2021/07/13 11:56:58;;;;;;;33.08;30.98;;;24.20;80.70;;;;;;5028986;28;20072;-79
2021/07/13 11:59:26;;;;;;;30.73;15.13;;;24.50;80.50;;;;;;5030641;28;20025;-80
2021/07/13 12:01:55;;;;;;;13.02;11.77;;;24.80;80.00;;;;;;5013189;28;20033;-81
2021/07/13 12:04:23;;;;;;;11.80;10.65;;;25.20;79.40;;;;;;5031057;28;20026;-79
2021/07/13 12:06:57;;;;;;;12.77;11.77;;;25.40;78.50;;;;;;5009894;28;20092;-78
2021/07/13 12:09:27;;;;;;;26.10;24.52;;;25.50;77.30;;;;;;5029412;28;20021;-79
2021/07/13 12:11:54;;;;;;;14.30;13.10;;;25.40;77.00;;;;;;5030097;28;20152;-77
2021/07/13 12:14:21;;;;;;;21.63;20.08;;;25.30;76.70;;;;;;5030515;28;20021;-77
2021/07/13 12:16:47;;;;;;;15.77;14.38;;;25.10;76.10;;;;;;5028253;28;20364;-80
2021/07/13 12:19:16;;;;;;;14.75;13.45;;;24.90;75.60;;;;;;5028044;28;20033;-80
2021/07/13 12:21:53;;;;;;;13.40;12.50;;;24.60;75.40;;;;;;5029331;28;20026;-79
2021/07/13 12:24:40;;;;;;;13.10;12.07;;;24.40;75.60;;;;;;5028255;28;20472;-79
2021/07/13 12:27:15;;;;;;;23.63;18.83;;;24.20;76.00;;;;;;5028335;28;20021;-80
2021/07/13 12:29:56;;;;;;;13.90;12.75;;;24.20;76.20;;;;;;5029353;28;20072;-78
2021/07/13 12:32:31;;;;;;;12.93;11.80;;;24.20;76.60;;;;;;5043761;28;20021;-76